Cairo, Missouri
Current Conditions -  °F | °C
As of 1:15 PM on Friday 21 Nov 2014 (Local Time) from KVER Reporting Station
Overcast Overcast  
Wind Chill: 33°   Ceiling: 2000
Heat Index: 40°   Visibility: 10mi
Dew Point: 21°   Wind: 13mph
Humidity: 46%   Direction: 130°SE
Pressure: 30.23"   Gusts: NA
Location:  39.51°N, 92.44°W
Report Text: KVER 211915Z AUTO 13011KT 10SM OVC020 05/M06 A3023 RMK AO2 T00471061
Loading
Personal Weather Stations






























Interactive Weather Map New forecast layout! Learn more

10-Day Weather Forecast

Advertisements
Track Severe Weather on mobile